GCMCH EGSU-EGBT
Flight info
| Callsign | GCMCH |
|---|---|
| Flight time | 0h 38m |
| Altitude | 3500 |
| Route | VFR VIA CAMBRIDGE HUNTINGDON WELLINGBOROUGH NORTHAMPTON TOWCESTER |
| Aircraft | PA24/L-VGDW/C |
Departure
| Time | 2026-04-25 10:00 |
|---|---|
| Airport | Duxford Aerodrome (EGSU) |
Arrival
| Time | 2026-04-25 10:39 |
|---|---|
| Airport | Turweston Aerodrome (EGBT) |
| Time | Latitude | Longitude | Altitude | Speed | Heading |
|---|---|---|---|---|---|
| 2026-04-25 09:28 | 52.09468 | 0.13380 | 117 ft | 0 kts | 349° |
| 2026-04-25 09:53 | 52.09477 | 0.13392 | 115 ft | 8 kts | 88° |
| 2026-04-25 09:54 | 52.09427 | 0.13374 | 115 ft | 9 kts | 247° |
| 2026-04-25 09:54 | 52.09393 | 0.13267 | 115 ft | 15 kts | 239° |
| 2026-04-25 09:54 | 52.09339 | 0.13119 | 115 ft | 19 kts | 238° |
| 2026-04-25 09:54 | 52.09280 | 0.12950 | 115 ft | 18 kts | 240° |
| 2026-04-25 09:55 | 52.09213 | 0.12759 | 115 ft | 20 kts | 242° |
| 2026-04-25 09:55 | 52.09148 | 0.12571 | 115 ft | 15 kts | 240° |
| 2026-04-25 09:55 | 52.09074 | 0.12476 | 115 ft | 15 kts | 213° |
| 2026-04-25 09:55 | 52.08967 | 0.12368 | 115 ft | 19 kts | 211° |
| 2026-04-25 09:56 | 52.08856 | 0.12251 | 115 ft | 13 kts | 216° |
| 2026-04-25 09:56 | 52.08782 | 0.12201 | 115 ft | 9 kts | 158° |
| 2026-04-25 09:56 | 52.08776 | 0.12205 | 115 ft | 0 kts | 155° |
| 2026-04-25 09:59 | 52.08766 | 0.12214 | 115 ft | 9 kts | 151° |
| 2026-04-25 09:59 | 52.08725 | 0.12302 | 115 ft | 11 kts | 69° |
| 2026-04-25 09:59 | 52.08731 | 0.12319 | 115 ft | 0 kts | 58° |
| 2026-04-25 10:00 | 52.08888 | 0.12718 | 123 ft | 85 kts | 58° |
| 2026-04-25 10:00 | 52.09210 | 0.13564 | 415 ft | 91 kts | 58° |
| 2026-04-25 10:00 | 52.09566 | 0.14486 | 799 ft | 98 kts | 58° |
| 2026-04-25 10:00 | 52.09939 | 0.15474 | 1178 ft | 106 kts | 57° |
| 2026-04-25 10:01 | 52.10372 | 0.16476 | 1568 ft | 109 kts | 52° |
| 2026-04-25 10:01 | 52.10848 | 0.17425 | 1902 ft | 109 kts | 48° |
| 2026-04-25 10:01 | 52.11348 | 0.18349 | 2217 ft | 109 kts | 48° |
| 2026-04-25 10:01 | 52.11850 | 0.19309 | 2466 ft | 116 kts | 49° |
| 2026-04-25 10:02 | 52.12399 | 0.20393 | 2528 ft | 127 kts | 50° |
| 2026-04-25 10:02 | 52.12966 | 0.21528 | 2556 ft | 132 kts | 50° |
| 2026-04-25 10:02 | 52.13561 | 0.22717 | 2534 ft | 137 kts | 49° |
| 2026-04-25 10:02 | 52.14308 | 0.23662 | 2529 ft | 138 kts | 24° |
| 2026-04-25 10:03 | 52.15245 | 0.23984 | 2502 ft | 140 kts | 359° |
| 2026-04-25 10:03 | 52.16176 | 0.23632 | 2509 ft | 138 kts | 332° |
| 2026-04-25 10:03 | 52.16924 | 0.22639 | 2432 ft | 141 kts | 313° |
| 2026-04-25 10:03 | 52.17583 | 0.21453 | 2409 ft | 141 kts | 312° |
| 2026-04-25 10:04 | 52.18248 | 0.20257 | 2322 ft | 144 kts | 311° |
| 2026-04-25 10:04 | 52.18906 | 0.19048 | 2286 ft | 142 kts | 312° |
| 2026-04-25 10:04 | 52.19509 | 0.17815 | 2345 ft | 136 kts | 304° |
| 2026-04-25 10:04 | 52.20033 | 0.16555 | 2367 ft | 137 kts | 305° |
| 2026-04-25 10:05 | 52.20584 | 0.15268 | 2329 ft | 139 kts | 304° |
| 2026-04-25 10:05 | 52.21137 | 0.13988 | 2345 ft | 137 kts | 306° |
| 2026-04-25 10:05 | 52.21704 | 0.12738 | 2336 ft | 137 kts | 307° |
| 2026-04-25 10:05 | 52.22281 | 0.11499 | 2333 ft | 137 kts | 307° |
| 2026-04-25 10:06 | 52.22843 | 0.10252 | 2347 ft | 136 kts | 306° |
| 2026-04-25 10:06 | 52.23404 | 0.08989 | 2309 ft | 138 kts | 306° |
| 2026-04-25 10:06 | 52.23975 | 0.07733 | 2314 ft | 137 kts | 306° |
| 2026-04-25 10:06 | 52.24538 | 0.06479 | 2310 ft | 137 kts | 307° |
| 2026-04-25 10:07 | 52.25109 | 0.05231 | 2299 ft | 137 kts | 307° |
| 2026-04-25 10:07 | 52.25703 | 0.04009 | 2287 ft | 137 kts | 308° |
| 2026-04-25 10:07 | 52.26301 | 0.02773 | 2287 ft | 137 kts | 307° |
| 2026-04-25 10:07 | 52.26870 | 0.01549 | 2274 ft | 137 kts | 307° |
| 2026-04-25 10:08 | 52.27440 | 0.00302 | 2277 ft | 137 kts | 306° |
| 2026-04-25 10:08 | 52.28004 | -0.00951 | 2274 ft | 137 kts | 305° |
| 2026-04-25 10:08 | 52.28504 | -0.02275 | 2262 ft | 137 kts | 299° |
| 2026-04-25 10:08 | 52.28925 | -0.03648 | 2269 ft | 134 kts | 295° |
| 2026-04-25 10:09 | 52.29327 | -0.05024 | 2294 ft | 134 kts | 295° |
| 2026-04-25 10:09 | 52.29729 | -0.06397 | 2310 ft | 135 kts | 295° |
| 2026-04-25 10:09 | 52.29985 | -0.07854 | 2328 ft | 134 kts | 276° |
| 2026-04-25 10:09 | 52.30043 | -0.09386 | 2328 ft | 135 kts | 274° |
| 2026-04-25 10:10 | 52.30099 | -0.10915 | 2346 ft | 135 kts | 274° |
| 2026-04-25 10:10 | 52.30177 | -0.12452 | 2361 ft | 135 kts | 276° |
| 2026-04-25 10:10 | 52.30276 | -0.13984 | 2367 ft | 136 kts | 277° |
| 2026-04-25 10:10 | 52.30372 | -0.15510 | 2382 ft | 135 kts | 276° |
| 2026-04-25 10:11 | 52.30459 | -0.17038 | 2408 ft | 135 kts | 276° |
| 2026-04-25 10:11 | 52.30565 | -0.18561 | 2413 ft | 135 kts | 278° |
| 2026-04-25 10:11 | 52.30913 | -0.19955 | 2438 ft | 135 kts | 309° |
| 2026-04-25 10:11 | 52.31626 | -0.20981 | 2417 ft | 136 kts | 321° |
| 2026-04-25 10:12 | 52.32380 | -0.21909 | 2426 ft | 136 kts | 322° |
| 2026-04-25 10:12 | 52.33056 | -0.22976 | 2437 ft | 137 kts | 305° |
| 2026-04-25 10:12 | 52.33714 | -0.25878 | 2417 ft | 136 kts | 287° |
| 2026-04-25 10:13 | 52.33978 | -0.27352 | 2462 ft | 134 kts | 287° |
| 2026-04-25 10:13 | 52.34256 | -0.28823 | 2426 ft | 137 kts | 288° |
| 2026-04-25 10:13 | 52.34539 | -0.30307 | 2428 ft | 135 kts | 288° |
| 2026-04-25 10:13 | 52.34829 | -0.31763 | 2440 ft | 135 kts | 289° |
| 2026-04-25 10:14 | 52.35134 | -0.33221 | 2431 ft | 136 kts | 289° |
| 2026-04-25 10:14 | 52.35440 | -0.34669 | 2434 ft | 135 kts | 289° |
| 2026-04-25 10:14 | 52.35740 | -0.36104 | 2432 ft | 135 kts | 288° |
| 2026-04-25 10:14 | 52.36032 | -0.37568 | 2441 ft | 135 kts | 289° |
| 2026-04-25 10:15 | 52.36373 | -0.39000 | 2428 ft | 135 kts | 295° |
| 2026-04-25 10:15 | 52.36782 | -0.40387 | 2416 ft | 135 kts | 296° |
| 2026-04-25 10:15 | 52.37068 | -0.41317 | 2413 ft | 135 kts | 297° |
| 2026-04-25 10:15 | 52.37616 | -0.43149 | 2417 ft | 135 kts | 296° |
| 2026-04-25 10:16 | 52.37895 | -0.44088 | 2411 ft | 136 kts | 296° |
| 2026-04-25 10:16 | 52.38304 | -0.45465 | 2401 ft | 136 kts | 296° |
| 2026-04-25 10:16 | 52.38749 | -0.46831 | 2394 ft | 135 kts | 302° |
| 2026-04-25 10:16 | 52.39334 | -0.48052 | 2384 ft | 136 kts | 306° |
| 2026-04-25 10:17 | 52.39664 | -0.49476 | 2394 ft | 137 kts | 277° |
| 2026-04-25 10:17 | 52.39547 | -0.51044 | 2331 ft | 140 kts | 251° |
| 2026-04-25 10:17 | 52.38996 | -0.52320 | 2331 ft | 139 kts | 220° |
| 2026-04-25 10:17 | 52.38137 | -0.53022 | 2370 ft | 139 kts | 207° |
| 2026-04-25 10:18 | 52.37327 | -0.53892 | 2344 ft | 140 kts | 218° |
| 2026-04-25 10:18 | 52.36579 | -0.54896 | 2359 ft | 138 kts | 221° |
| 2026-04-25 10:18 | 52.35845 | -0.55919 | 2353 ft | 139 kts | 223° |
| 2026-04-25 10:18 | 52.35101 | -0.56915 | 2374 ft | 139 kts | 219° |
| 2026-04-25 10:19 | 52.34328 | -0.57861 | 2379 ft | 139 kts | 220° |
| 2026-04-25 10:19 | 52.33596 | -0.58882 | 2376 ft | 139 kts | 226° |
| 2026-04-25 10:19 | 52.32948 | -0.60043 | 2378 ft | 138 kts | 230° |
| 2026-04-25 10:19 | 52.32276 | -0.61164 | 2383 ft | 139 kts | 226° |
| 2026-04-25 10:20 | 52.31613 | -0.62307 | 2374 ft | 139 kts | 232° |
| 2026-04-25 10:20 | 52.31083 | -0.63625 | 2371 ft | 138 kts | 239° |
| 2026-04-25 10:20 | 52.30604 | -0.64946 | 2397 ft | 136 kts | 242° |
| 2026-04-25 10:20 | 52.30168 | -0.66328 | 2393 ft | 137 kts | 246° |
| 2026-04-25 10:21 | 52.29789 | -0.67762 | 2400 ft | 137 kts | 249° |
| 2026-04-25 10:21 | 52.29449 | -0.69216 | 2407 ft | 137 kts | 250° |
| 2026-04-25 10:21 | 52.29117 | -0.70683 | 2391 ft | 138 kts | 251° |
| 2026-04-25 10:21 | 52.28785 | -0.72149 | 2381 ft | 138 kts | 250° |
| 2026-04-25 10:22 | 52.28486 | -0.73625 | 2392 ft | 136 kts | 264° |
| 2026-04-25 10:22 | 52.28651 | -0.75141 | 2363 ft | 138 kts | 295° |
| 2026-04-25 10:22 | 52.29098 | -0.76499 | 2428 ft | 135 kts | 299° |
| 2026-04-25 10:22 | 52.29549 | -0.77798 | 2384 ft | 123 kts | 300° |
| 2026-04-25 10:23 | 52.29956 | -0.78963 | 2344 ft | 112 kts | 299° |
| 2026-04-25 10:23 | 52.30329 | -0.80007 | 2350 ft | 100 kts | 301° |
| 2026-04-25 10:23 | 52.30686 | -0.80928 | 2342 ft | 93 kts | 303° |
| 2026-04-25 10:23 | 52.31008 | -0.81725 | 2310 ft | 72 kts | 304° |
| 2026-04-25 10:24 | 52.31256 | -0.82304 | 2264 ft | 59 kts | 305° |
| 2026-04-25 10:24 | 52.31561 | -0.83042 | 2308 ft | 98 kts | 302° |
| 2026-04-25 10:24 | 52.31958 | -0.84083 | 2371 ft | 116 kts | 301° |
| 2026-04-25 10:24 | 52.32366 | -0.85257 | 2405 ft | 122 kts | 298° |
| 2026-04-25 10:25 | 52.32679 | -0.86538 | 2446 ft | 125 kts | 281° |
| 2026-04-25 10:25 | 52.32605 | -0.87944 | 2517 ft | 128 kts | 248° |
| 2026-04-25 10:25 | 52.31998 | -0.88985 | 2522 ft | 133 kts | 202° |
| 2026-04-25 10:25 | 52.31130 | -0.88754 | 2522 ft | 136 kts | 138° |
| 2026-04-25 10:26 | 52.30477 | -0.87638 | 2568 ft | 138 kts | 138° |
| 2026-04-25 10:26 | 52.29663 | -0.86788 | 2536 ft | 141 kts | 157° |
| 2026-04-25 10:26 | 52.28724 | -0.86339 | 2511 ft | 142 kts | 169° |
| 2026-04-25 10:26 | 52.27749 | -0.85993 | 2464 ft | 142 kts | 168° |
| 2026-04-25 10:27 | 52.26783 | -0.85710 | 2443 ft | 141 kts | 172° |
| 2026-04-25 10:27 | 52.25812 | -0.85683 | 2399 ft | 142 kts | 193° |
| 2026-04-25 10:27 | 52.24951 | -0.86470 | 2309 ft | 144 kts | 223° |
| 2026-04-25 10:27 | 52.24295 | -0.87737 | 2199 ft | 146 kts | 225° |
| 2026-04-25 10:28 | 52.23443 | -0.88549 | 2188 ft | 143 kts | 196° |
| 2026-04-25 10:28 | 52.22479 | -0.88905 | 2175 ft | 140 kts | 194° |
| 2026-04-25 10:28 | 52.21515 | -0.89322 | 2051 ft | 146 kts | 194° |
| 2026-04-25 10:28 | 52.20533 | -0.89721 | 2025 ft | 143 kts | 194° |
| 2026-04-25 10:29 | 52.19569 | -0.90119 | 1954 ft | 144 kts | 198° |
| 2026-04-25 10:29 | 52.18754 | -0.90975 | 2017 ft | 137 kts | 227° |
| 2026-04-25 10:29 | 52.18229 | -0.92246 | 2079 ft | 133 kts | 239° |
| 2026-04-25 10:29 | 52.17755 | -0.93533 | 2133 ft | 132 kts | 239° |
| 2026-04-25 10:30 | 52.17283 | -0.94815 | 2175 ft | 132 kts | 237° |
| 2026-04-25 10:30 | 52.16678 | -0.95943 | 2190 ft | 134 kts | 222° |
| 2026-04-25 10:30 | 52.15979 | -0.96969 | 2183 ft | 136 kts | 222° |
| 2026-04-25 10:30 | 52.15273 | -0.97989 | 2197 ft | 136 kts | 221° |
| 2026-04-25 10:31 | 52.14515 | -0.98903 | 2224 ft | 135 kts | 212° |
| 2026-04-25 10:31 | 52.13666 | -0.99620 | 2155 ft | 140 kts | 203° |
| 2026-04-25 10:31 | 52.12749 | -1.00140 | 2154 ft | 138 kts | 198° |
| 2026-04-25 10:31 | 52.11837 | -1.00600 | 2152 ft | 138 kts | 196° |
| 2026-04-25 10:32 | 52.10908 | -1.01021 | 2133 ft | 139 kts | 195° |
| 2026-04-25 10:32 | 52.09974 | -1.01379 | 2150 ft | 136 kts | 185° |
| 2026-04-25 10:32 | 52.09082 | -1.01151 | 2137 ft | 126 kts | 158° |
| 2026-04-25 10:32 | 52.08293 | -1.00607 | 2095 ft | 121 kts | 156° |
| 2026-04-25 10:33 | 52.07557 | -0.99922 | 2013 ft | 119 kts | 140° |
| 2026-04-25 10:33 | 52.06947 | -0.99091 | 2048 ft | 111 kts | 150° |
| 2026-04-25 10:33 | 52.06195 | -0.98981 | 2086 ft | 115 kts | 194° |
| 2026-04-25 10:33 | 52.05472 | -0.99600 | 2078 ft | 121 kts | 219° |
| 2026-04-25 10:34 | 52.04964 | -1.00672 | 2085 ft | 124 kts | 250° |
| 2026-04-25 10:34 | 52.04930 | -1.02085 | 2093 ft | 125 kts | 275° |
| 2026-04-25 10:34 | 52.05044 | -1.03517 | 2014 ft | 132 kts | 279° |
| 2026-04-25 10:34 | 52.05202 | -1.04980 | 1818 ft | 128 kts | 280° |
| 2026-04-25 10:35 | 52.05360 | -1.06384 | 1637 ft | 122 kts | 281° |
| 2026-04-25 10:35 | 52.05541 | -1.07696 | 1462 ft | 117 kts | 283° |
| 2026-04-25 10:35 | 52.05702 | -1.08962 | 1314 ft | 112 kts | 280° |
| 2026-04-25 10:35 | 52.05843 | -1.10162 | 1276 ft | 106 kts | 281° |
| 2026-04-25 10:36 | 52.05991 | -1.11331 | 1259 ft | 105 kts | 281° |
| 2026-04-25 10:36 | 52.06145 | -1.12481 | 1273 ft | 102 kts | 283° |
| 2026-04-25 10:36 | 52.06320 | -1.13596 | 1273 ft | 101 kts | 284° |
| 2026-04-25 10:36 | 52.06450 | -1.14702 | 1268 ft | 100 kts | 263° |
| 2026-04-25 10:37 | 52.06055 | -1.15544 | 1289 ft | 96 kts | 205° |
| 2026-04-25 10:37 | 52.05415 | -1.15580 | 1269 ft | 92 kts | 160° |
| 2026-04-25 10:37 | 52.04916 | -1.14972 | 1237 ft | 88 kts | 127° |
| 2026-04-25 10:37 | 52.04529 | -1.14248 | 1134 ft | 80 kts | 133° |
| 2026-04-25 10:38 | 52.04172 | -1.13587 | 994 ft | 73 kts | 128° |
| 2026-04-25 10:38 | 52.03988 | -1.12818 | 876 ft | 77 kts | 90° |
| 2026-04-25 10:38 | 52.04028 | -1.11934 | 717 ft | 78 kts | 86° |
| 2026-04-25 10:38 | 52.04052 | -1.11062 | 556 ft | 76 kts | 88° |
| 2026-04-25 10:39 | 52.04069 | -1.10260 | 436 ft | 60 kts | 88° |
| 2026-04-25 10:39 | 52.04081 | -1.09779 | 433 ft | 29 kts | 86° |
| 2026-04-25 10:39 | 52.04088 | -1.09486 | 438 ft | 23 kts | 88° |
| 2026-04-25 10:39 | 52.04092 | -1.09222 | 435 ft | 24 kts | 88° |
| 2026-04-25 10:40 | 52.04097 | -1.09005 | 441 ft | 16 kts | 87° |
| 2026-04-25 10:40 | 52.04074 | -1.08907 | 436 ft | 13 kts | 197° |
| 2026-04-25 10:40 | 52.04041 | -1.08965 | 438 ft | 6 kts | 266° |
| 2026-04-25 10:40 | 52.04039 | -1.09029 | 440 ft | 13 kts | 266° |
| 2026-04-25 10:41 | 52.04031 | -1.09303 | 438 ft | 18 kts | 270° |
| 2026-04-25 10:41 | 52.04027 | -1.09490 | 438 ft | 15 kts | 266° |
| 2026-04-25 10:41 | 52.04021 | -1.09653 | 435 ft | 15 kts | 266° |
| 2026-04-25 10:41 | 52.04019 | -1.09833 | 433 ft | 16 kts | 268° |
| 2026-04-25 10:42 | 52.04019 | -1.10004 | 436 ft | 14 kts | 269° |
| 2026-04-25 10:42 | 52.04014 | -1.10162 | 436 ft | 13 kts | 266° |
| 2026-04-25 10:42 | 52.03990 | -1.10254 | 427 ft | 4 kts | 264° |
| 2026-04-25 10:42 | 52.03993 | -1.10281 | 435 ft | 0 kts | 296° |